Time;durP1;ratioP1;P1;durP2;ratioP2;P2;SDS_P1;SDS_P2;PMS_P1;PMS_P2;Temp;Humidity;BMP_temperature;BMP_pressure;BME280_temperature;BME280_humidity;BME280_pressure;Samples;Min_cycle;Max_cycle;Signal;HPM_P1;HPM_P2
2021/12/04 00:00:27;;;;;;;;;;;6.90;99.90;;;;;;7342777;19;109540;-78
2021/12/04 00:02:54;;;;;;;;;;;6.90;99.90;;;;;;7348429;19;110932;-79
2021/12/04 00:05:23;;;;;;;;;;;6.80;99.90;;;;;;7342592;19;110080;-78
2021/12/04 00:07:49;;;;;;;;;;;6.90;99.90;;;;;;7346330;19;111102;-78
2021/12/04 00:10:18;;;;;;;;;;;6.80;99.90;;;;;;7340227;19;111803;-78
2021/12/04 00:12:45;;;;;;;;;;;6.80;99.90;;;;;;7347028;19;109556;-79
2021/12/04 00:15:13;;;;;;;;;;;6.90;99.90;;;;;;7343919;19;111076;-78
2021/12/04 00:17:40;;;;;;;;;;;6.90;99.90;;;;;;7344031;19;112090;-78
2021/12/04 00:20:08;;;;;;;;;;;6.90;99.90;;;;;;7341973;19;111439;-78
2021/12/04 00:22:34;;;;;;;;;;;6.90;99.90;;;;;;7343245;19;109317;-78
2021/12/04 00:25:03;;;;;;;;;;;6.90;99.90;;;;;;7347348;19;111587;-78
2021/12/04 00:27:29;;;;;;;;;;;6.90;99.90;;;;;;7344425;19;114559;-78
2021/12/04 00:29:58;;;;;;;;;;;6.90;99.90;;;;;;7342861;19;111749;-78
2021/12/04 00:32:36;;;;;;;;;;;6.90;99.90;;;;;;7342457;19;109858;-78
2021/12/04 00:35:34;;;;;;;;;;;6.90;99.90;;;;;;7344061;19;110794;-78
2021/12/04 00:49:13;;;;;;;;;;;6.90;99.90;;;;;;7346483;19;109675;-78
2021/12/04 00:51:42;;;;;;;;;;;6.90;99.90;;;;;;7343636;19;112566;-78
2021/12/04 00:54:10;;;;;;;;;;;6.90;99.90;;;;;;7342343;19;109696;-78
2021/12/04 00:56:38;;;;;;;;;;;6.90;99.90;;;;;;7343709;19;109253;-79
2021/12/04 00:59:05;;;;;;;;;;;6.90;99.90;;;;;;7341533;19;111747;-78
2021/12/04 01:01:32;;;;;;;;;;;6.90;99.90;;;;;;7345321;19;109608;-78
2021/12/04 01:03:59;;;;;;;;;;;6.90;99.90;;;;;;7339006;19;111378;-78
2021/12/04 01:06:26;;;;;;;;;;;6.90;99.90;;;;;;7344809;19;112071;-78
2021/12/04 01:08:53;;;;;;;;;;;6.90;99.90;;;;;;7346169;19;109434;-78
2021/12/04 01:11:20;;;;;;;;;;;6.90;99.90;;;;;;7342775;19;112028;-78
2021/12/04 01:13:47;;;;;;;;;;;6.90;99.90;;;;;;7343842;19;109599;-78
2021/12/04 01:16:14;;;;;;;;;;;6.90;99.90;;;;;;7342635;19;110686;-78
2021/12/04 01:18:43;;;;;;;;;;;7.00;99.90;;;;;;7341945;19;110148;-78
2021/12/04 01:21:10;;;;;;;;;;;7.00;99.90;;;;;;7341927;19;110338;-78
2021/12/04 01:23:37;;;;;;;;;;;7.00;99.90;;;;;;7344194;19;110793;-78
2021/12/04 01:26:04;;;;;;;;;;;7.00;99.90;;;;;;7338767;19;111858;-78
2021/12/04 01:28:31;;;;;;;;;;;7.00;99.90;;;;;;7342476;19;109270;-78
2021/12/04 01:30:58;;;;;;;;;;;7.00;99.90;;;;;;7345850;19;111471;-78
2021/12/04 01:33:25;;;;;;;;;;;7.00;99.90;;;;;;7344119;19;110293;-78
2021/12/04 01:35:52;;;;;;;;;;;7.00;99.90;;;;;;7339083;19;110156;-78
2021/12/04 01:38:19;;;;;;;;;;;7.00;99.90;;;;;;7337307;19;111849;-79
2021/12/04 01:40:47;;;;;;;;;;;7.00;99.90;;;;;;7343894;19;109621;-78
2021/12/04 01:43:14;;;;;;;;;;;7.00;99.90;;;;;;7340498;19;110915;-78
2021/12/04 01:45:41;;;;;;;;;;;7.00;99.90;;;;;;7342695;19;112052;-78
2021/12/04 01:48:08;;;;;;;;;;;7.00;99.90;;;;;;7340504;19;109324;-78
2021/12/04 01:50:35;;;;;;;;;;;7.00;99.90;;;;;;7341772;19;114831;-78
2021/12/04 01:53:03;;;;;;;;;;;7.00;99.90;;;;;;7345609;19;111762;-78
2021/12/04 01:55:31;;;;;;;;;;;7.00;99.90;;;;;;7341596;19;111015;-78
2021/12/04 01:58:01;;;;;;;;;;;7.00;99.90;;;;;;7338346;19;111852;-78
2021/12/04 02:00:29;;;;;;;;;;;6.90;99.90;;;;;;7345863;19;109391;-78
2021/12/04 02:02:55;;;;;;;;;;;6.90;99.90;;;;;;7352029;19;111056;-78
2021/12/04 02:05:23;;;;;;;;;;;6.90;99.90;;;;;;7346388;19;112198;-79
2021/12/04 02:07:50;;;;;;;;;;;6.90;99.90;;;;;;7351937;19;109380;-78
2021/12/04 02:10:17;;;;;;;;;;;7.00;99.90;;;;;;7345515;19;111231;-78
2021/12/04 02:12:44;;;;;;;;;;;7.00;99.90;;;;;;7349734;19;111862;-78
2021/12/04 02:15:12;;;;;;;;;;;6.90;99.90;;;;;;7353533;19;109401;-78
2021/12/04 02:17:39;;;;;;;;;;;6.90;99.90;;;;;;7348645;19;114409;-78
2021/12/04 02:20:10;;;;;;;;;;;6.80;99.90;;;;;;7350604;19;110032;-78
2021/12/04 02:22:37;;;;;;;;;;;6.80;99.90;;;;;;7348590;19;111037;-78
2021/12/04 02:25:07;;;;;;;;;;;6.70;99.90;;;;;;7349780;19;112263;-78
2021/12/04 02:27:33;;;;;;;;;;;6.70;99.90;;;;;;7347823;19;109783;-78
2021/12/04 02:30:00;;;;;;;;;;;6.60;99.90;;;;;;7349224;19;111441;-78
2021/12/04 02:32:28;;;;;;;;;;;6.60;99.90;;;;;;7345893;19;113513;-79
2021/12/04 02:34:55;;;;;;;;;;;6.60;99.90;;;;;;7350472;19;110177;-78
2021/12/04 02:37:22;;;;;;;;;;;6.60;99.90;;;;;;7351836;19;110725;-79
2021/12/04 02:39:57;;;;;;;;;;;6.50;99.90;;;;;;7349482;19;109507;-78
2021/12/04 02:42:27;;;;;;;;;;;6.60;99.90;;;;;;7347013;19;110968;-79
2021/12/04 02:44:54;;;;;;;;;;;6.60;99.90;;;;;;7348365;19;112366;-78
2021/12/04 02:47:21;;;;;;;;;;;6.60;99.90;;;;;;7350290;19;109438;-78
2021/12/04 02:49:48;;;;;;;;;;;6.60;99.90;;;;;;7346736;19;110937;-79
2021/12/04 02:52:15;;;;;;;;;;;6.60;99.90;;;;;;7348370;19;110156;-79
2021/12/04 02:54:42;;;;;;;;;;;6.60;99.90;;;;;;7346910;19;109425;-78
2021/12/04 02:57:11;;;;;;;;;;;6.60;99.90;;;;;;7354288;19;110584;-78
2021/12/04 02:59:39;;;;;;;;;;;6.60;99.90;;;;;;7347343;19;109716;-79
2021/12/04 03:02:07;;;;;;;;;;;6.60;99.90;;;;;;7347929;19;111054;-78
2021/12/04 03:04:34;;;;;;;;;;;6.60;99.90;;;;;;7345438;19;112029;-78
2021/12/04 03:07:01;;;;;;;;;;;6.60;99.90;;;;;;7347452;19;109930;-78
2021/12/04 03:09:28;;;;;;;;;;;6.60;99.90;;;;;;7347816;19;111111;-79
2021/12/04 03:11:55;;;;;;;;;;;6.60;99.90;;;;;;7344004;19;115223;-78
2021/12/04 03:14:22;;;;;;;;;;;6.60;99.90;;;;;;7347979;19;110059;-78
2021/12/04 03:16:49;;;;;;;;;;;6.60;99.90;;;;;;7343683;19;110633;-78
2021/12/04 03:19:17;;;;;;;;;;;6.60;99.90;;;;;;7353351;19;111789;-78
2021/12/04 03:21:45;;;;;;;;;;;6.60;99.90;;;;;;7346442;19;110829;-78
2021/12/04 03:24:14;;;;;;;;;;;6.60;99.90;;;;;;7347366;19;113813;-79
2021/12/04 03:26:41;;;;;;;;;;;6.60;99.90;;;;;;7346096;19;109439;-78
2021/12/04 03:29:12;;;;;;;;;;;6.60;99.90;;;;;;7345973;19;110984;-78
2021/12/04 03:42:32;;;;;;;;;;;6.60;99.90;;;;;;7351053;19;109345;-78
2021/12/04 03:44:58;;;;;;;;;;;6.60;99.90;;;;;;7347391;19;112941;-78
2021/12/04 03:47:25;;;;;;;;;;;6.60;99.90;;;;;;7342595;19;109470;-78
2021/12/04 03:49:52;;;;;;;;;;;6.60;99.90;;;;;;7346598;19;111217;-78
2021/12/04 03:52:19;;;;;;;;;;;6.60;99.90;;;;;;7342353;19;112497;-78
2021/12/04 03:54:46;;;;;;;;;;;6.60;99.90;;;;;;7346944;19;109489;-78
2021/12/04 03:57:13;;;;;;;;;;;6.60;99.90;;;;;;7343723;19;110717;-78
2021/12/04 03:59:40;;;;;;;;;;;6.60;99.90;;;;;;7343294;19;112598;-78
2021/12/04 04:02:09;;;;;;;;;;;6.60;99.90;;;;;;7344166;19;109553;-78
2021/12/04 04:04:37;;;;;;;;;;;6.60;99.90;;;;;;7350758;19;110667;-78
2021/12/04 04:07:04;;;;;;;;;;;6.60;99.90;;;;;;7345722;19;110734;-78
2021/12/04 04:09:32;;;;;;;;;;;6.70;99.90;;;;;;7344476;19;110633;-78
2021/12/04 04:11:59;;;;;;;;;;;6.70;99.90;;;;;;7346599;19;111801;-78
2021/12/04 04:14:26;;;;;;;;;;;6.60;99.90;;;;;;7344246;19;110959;-78
2021/12/04 04:16:54;;;;;;;;;;;6.60;99.90;;;;;;7345639;19;110797;-78
2021/12/04 04:19:22;;;;;;;;;;;6.60;99.90;;;;;;7343660;19;111894;-78
2021/12/04 04:21:53;;;;;;;;;;;6.60;99.90;;;;;;7343949;19;111160;-78
2021/12/04 04:24:20;;;;;;;;;;;6.60;99.90;;;;;;7346529;19;110724;-79
2021/12/04 04:26:46;;;;;;;;;;;6.60;99.90;;;;;;7350564;19;112087;-78
2021/12/04 04:29:14;;;;;;;;;;;6.60;99.90;;;;;;7344986;19;111107;-78
2021/12/04 04:31:48;;;;;;;;;;;6.60;99.90;;;;;;7343514;19;112720;-78
2021/12/04 04:34:35;;;;;;;;;;;6.60;99.90;;;;;;7345839;19;110296;-78
2021/12/04 05:13:00;;;;;;;;;;;6.50;99.90;;;;;;7348861;19;113576;-78
2021/12/04 05:15:39;;;;;;;;;;;6.50;99.90;;;;;;7341315;19;112097;-78
2021/12/04 05:20:38;;;;;;;;;;;6.50;99.90;;;;;;7342878;19;110971;-78
2021/12/04 05:23:07;;;;;;;;;;;6.50;99.90;;;;;;7342664;19;110199;-78
2021/12/04 05:25:36;;;;;;;;;;;6.50;99.90;;;;;;7340465;19;110553;-78
2021/12/04 05:28:03;;;;;;;;;;;6.50;99.90;;;;;;7343893;19;110638;-78
2021/12/04 05:30:34;;;;;;;;;;;6.50;99.90;;;;;;7339729;19;131536;-78
2021/12/04 05:33:02;;;;;;;;;;;6.50;99.90;;;;;;7343685;19;109823;-78
2021/12/04 05:35:29;;;;;;;;;;;6.50;99.90;;;;;;7353597;19;111400;-78
2021/12/04 05:37:56;;;;;;;;;;;6.50;99.90;;;;;;7348546;19;109388;-78
2021/12/04 05:40:23;;;;;;;;;;;6.60;99.90;;;;;;7351103;19;110910;-78
2021/12/04 05:42:50;;;;;;;;;;;6.60;99.90;;;;;;7347584;19;111934;-78
2021/12/04 05:45:24;;;;;;;;;;;6.60;99.90;;;;;;7351058;19;109345;-78
2021/12/04 05:55:55;;;;;;;;;;;6.60;99.90;;;;;;7348513;19;112037;-78
2021/12/04 05:58:25;;;;;;;;;;;6.70;99.90;;;;;;7353837;19;112929;-78
2021/12/04 06:00:53;;;;;;;;;;;6.70;99.90;;;;;;7345485;19;110833;-78
2021/12/04 06:03:20;;;;;;;;;;;6.70;99.90;;;;;;7349274;19;112113;-78
2021/12/04 06:05:47;;;;;;;;;;;6.70;99.90;;;;;;7348738;19;109855;-78
2021/12/04 06:08:14;;;;;;;;;;;6.70;99.90;;;;;;7349047;19;111170;-78
2021/12/04 06:10:41;;;;;;;;;;;6.80;99.90;;;;;;7347734;19;110606;-78
2021/12/04 06:13:08;;;;;;;;;;;6.80;99.90;;;;;;7349409;19;110256;-78
2021/12/04 06:15:35;;;;;;;;;;;6.90;99.90;;;;;;7350062;19;111211;-78
2021/12/04 06:18:02;;;;;;;;;;;6.80;99.90;;;;;;7347203;19;111849;-78
2021/12/04 06:23:15;;;;;;;;;;;6.80;99.90;;;;;;7346202;19;111746;-77
2021/12/04 06:25:42;;;;;;;;;;;6.80;99.90;;;;;;7350701;19;109414;-78
2021/12/04 06:28:08;;;;;;;;;;;6.70;99.90;;;;;;7344153;19;110976;-78
2021/12/04 06:30:37;;;;;;;;;;;6.70;99.90;;;;;;7344475;19;112596;-78
2021/12/04 06:33:05;;;;;;;;;;;6.70;99.90;;;;;;7348961;19;109385;-78
2021/12/04 06:35:32;;;;;;;;;;;6.70;99.90;;;;;;7338480;19;111426;-78
2021/12/04 06:38:00;;;;;;;;;;;6.70;99.90;;;;;;7340184;19;113508;-78
2021/12/04 06:40:30;;;;;;;;;;;6.80;99.90;;;;;;7346602;19;111024;-78
2021/12/04 06:42:58;;;;;;;;;;;6.80;99.90;;;;;;7352387;19;111141;-77
2021/12/04 06:45:27;;;;;;;;;;;6.80;99.90;;;;;;7346307;19;109486;-77
2021/12/04 06:47:57;;;;;;;;;;;6.70;99.90;;;;;;7346942;19;111695;-78
2021/12/04 06:52:56;;;;;;;;;;;6.80;99.90;;;;;;7344699;19;110099;-78
2021/12/04 06:55:28;;;;;;;;;;;6.70;99.90;;;;;;7348382;19;114082;-78
2021/12/04 06:57:55;;;;;;;;;;;6.70;99.90;;;;;;7344922;19;112057;-78
2021/12/04 07:00:24;;;;;;;;;;;6.70;99.90;;;;;;7349007;19;109478;-77
2021/12/04 07:02:51;;;;;;;;;;;6.60;99.90;;;;;;7341933;19;111484;-78
2021/12/04 07:05:18;;;;;;;;;;;6.60;99.90;;;;;;7151224;19;112966;-78
2021/12/04 07:07:45;;;;;;;;;;;6.60;99.90;;;;;;7326379;19;114003;-78
2021/12/04 07:10:12;;;;;;;;;;;6.60;99.90;;;;;;7346310;19;112483;-78
2021/12/04 07:12:39;;;;;;;;;;;6.60;99.90;;;;;;7346616;19;109199;-78
2021/12/04 07:15:06;;;;;;;;;;;6.60;99.90;;;;;;7347225;19;111336;-78
2021/12/04 07:17:35;;;;;;;;;;;6.60;99.90;;;;;;7349042;19;112326;-78
2021/12/04 07:20:03;;;;;;;;;;;6.60;99.90;;;;;;7340370;19;113361;-78
2021/12/04 07:22:30;;;;;;;;;;;6.60;99.90;;;;;;7349304;19;111181;-78
2021/12/04 07:24:57;;;;;;;;;;;6.60;99.90;;;;;;7350166;19;112395;-78
2021/12/04 07:27:24;;;;;;;;;;;6.70;99.90;;;;;;7348610;19;111073;-78
2021/12/04 07:29:51;;;;;;;;;;;6.70;99.90;;;;;;7344725;19;112270;-77
2021/12/04 07:32:18;;;;;;;;;;;6.80;99.90;;;;;;7344943;19;110082;-78
2021/12/04 07:34:45;;;;;;;;;;;6.70;99.90;;;;;;7344278;19;111980;-77
2021/12/04 07:37:12;;;;;;;;;;;6.70;99.90;;;;;;7338046;19;112115;-77
2021/12/04 07:39:39;;;;;;;;;;;6.70;99.90;;;;;;7344601;19;109319;-79
2021/12/04 07:42:05;;;;;;;;;;;6.70;99.90;;;;;;7342764;19;111513;-78
2021/12/04 07:44:32;;;;;;;;;;;6.70;99.90;;;;;;7346143;19;112073;-77
2021/12/04 07:47:00;;;;;;;;;;;6.70;99.90;;;;;;7350057;19;110754;-78
2021/12/04 07:49:27;;;;;;;;;;;6.60;99.90;;;;;;7347371;19;112544;-78
2021/12/04 07:51:54;;;;;;;;;;;6.60;99.90;;;;;;7343682;19;110659;-78
2021/12/04 07:54:21;;;;;;;;;;;6.60;99.90;;;;;;7347165;19;110955;-78
2021/12/04 07:56:48;;;;;;;;;;;6.60;99.90;;;;;;7344587;19;111719;-78
2021/12/04 07:59:14;;;;;;;;;;;6.50;99.90;;;;;;7343869;19;109608;-78
2021/12/04 08:01:41;;;;;;;;;;;6.60;99.90;;;;;;7345219;19;110706;-78
2021/12/04 08:04:08;;;;;;;;;;;6.60;99.90;;;;;;7342495;19;111736;-78
2021/12/04 08:06:35;;;;;;;;;;;6.60;99.90;;;;;;7346800;19;109913;-78
2021/12/04 08:09:03;;;;;;;;;;;6.60;99.90;;;;;;7347714;19;109741;-78
2021/12/04 08:11:30;;;;;;;;;;;6.60;99.90;;;;;;7344846;19;109751;-78
2021/12/04 08:13:57;;;;;;;;;;;6.60;99.90;;;;;;7339653;19;111238;-78
2021/12/04 08:16:24;;;;;;;;;;;6.60;99.90;;;;;;7344099;19;112762;-78
2021/12/04 08:18:52;;;;;;;;;;;6.60;99.90;;;;;;7340252;19;109637;-78
2021/12/04 08:21:20;;;;;;;;;;;6.60;99.90;;;;;;7345275;19;110965;-78
2021/12/04 08:23:47;;;;;;;;;;;6.60;99.90;;;;;;7342442;19;112118;-79
2021/12/04 08:26:14;;;;;;;;;;;6.70;99.90;;;;;;7340748;19;109896;-79
2021/12/04 08:28:41;;;;;;;;;;;6.70;99.90;;;;;;7340591;19;111378;-78
2021/12/04 08:31:08;;;;;;;;;;;6.70;99.90;;;;;;7343153;19;113448;-78
2021/12/04 08:33:35;;;;;;;;;;;6.70;99.90;;;;;;7343243;19;111074;-78
2021/12/04 08:36:04;;;;;;;;;;;6.70;99.90;;;;;;7340075;19;113138;-78
2021/12/04 08:38:35;;;;;;;;;;;6.70;99.90;;;;;;7344975;19;109695;-78
2021/12/04 08:41:03;;;;;;;;;;;6.70;99.90;;;;;;7342832;19;110706;-78
2021/12/04 08:43:30;;;;;;;;;;;6.70;99.90;;;;;;7343526;19;111895;-79
2021/12/04 08:46:01;;;;;;;;;;;6.70;99.90;;;;;;7337096;19;110428;-79
2021/12/04 08:48:31;;;;;;;;;;;6.80;99.90;;;;;;7341641;19;111220;-77
2021/12/04 08:50:59;;;;;;;;;;;6.80;99.90;;;;;;7338585;19;111393;-79
2021/12/04 08:53:26;;;;;;;;;;;6.80;99.90;;;;;;7346688;19;109538;-78
2021/12/04 08:55:53;;;;;;;;;;;6.90;99.90;;;;;;7341650;19;112147;-78
2021/12/04 08:58:20;;;;;;;;;;;6.90;99.90;;;;;;7341395;19;109428;-78
2021/12/04 09:00:52;;;;;;;;;;;7.00;99.90;;;;;;7343698;19;110421;-79
2021/12/04 09:03:21;;;;;;;;;;;7.10;99.90;;;;;;7337147;19;112108;-78
2021/12/04 09:05:50;;;;;;;;;;;7.10;99.90;;;;;;7345073;19;110064;-78
2021/12/04 09:08:18;;;;;;;;;;;7.20;99.90;;;;;;7338862;19;110798;-78
2021/12/04 09:10:47;;;;;;;;;;;7.20;99.90;;;;;;7347202;19;110826;-79
2021/12/04 09:13:14;;;;;;;;;;;7.20;99.90;;;;;;7348944;19;111072;-78
2021/12/04 09:15:41;;;;;;;;;;;7.20;99.90;;;;;;7346230;19;110674;-78
2021/12/04 09:18:08;;;;;;;;;;;7.10;99.90;;;;;;7344100;19;109801;-79
2021/12/04 09:20:35;;;;;;;;;;;7.20;99.90;;;;;;7347434;19;111442;-78
2021/12/04 09:23:04;;;;;;;;;;;7.20;99.90;;;;;;7346904;19;113067;-78
2021/12/04 09:25:33;;;;;;;;;;;7.20;99.90;;;;;;7346316;19;109540;-78
2021/12/04 09:33:46;;;;;;;;;;;7.20;99.90;;;;;;7349065;19;110963;-78
2021/12/04 10:01:15;;;;;;;;;;;7.30;99.90;;;;;;7355640;19;114502;-79
2021/12/04 10:19:32;;;;;;;;;;;7.40;99.90;;;;;;7349145;19;110831;-80
2021/12/04 10:33:06;;;;;;;;;;;7.60;99.90;;;;;;7349778;19;111547;-80
2021/12/04 10:35:32;;;;;;;;;;;7.60;99.90;;;;;;7347488;19;112322;-80
2021/12/04 10:38:05;;;;;;;;;;;7.70;99.90;;;;;;7346077;19;109481;-80
2021/12/04 10:40:38;;;;;;;;;;;7.80;99.90;;;;;;7350054;19;111136;-80
2021/12/04 10:43:07;;;;;;;;;;;7.80;99.90;;;;;;7344944;19;112114;-80
2021/12/04 10:45:39;;;;;;;;;;;7.80;99.90;;;;;;7348609;19;109494;-80
2021/12/04 10:48:13;;;;;;;;;;;7.80;99.90;;;;;;7347531;19;110625;-80
2021/12/04 10:53:33;;;;;;;;;;;7.90;99.90;;;;;;7346120;19;109809;-80
2021/12/04 11:01:55;;;;;;;;;;;7.90;99.90;;;;;;7346876;19;111750;-80
2021/12/04 11:06:51;;;;;;;;;;;7.90;99.90;;;;;;7345786;19;110035;-80
2021/12/04 11:45:30;;;;;;;;;;;7.90;99.90;;;;;;7342781;19;111269;-80
2021/12/04 11:48:03;;;;;;;;;;;7.80;99.90;;;;;;7336188;19;111919;-79
2021/12/04 11:50:37;;;;;;;;;;;7.80;99.90;;;;;;7337189;19;111780;-78
2021/12/04 11:53:17;;;;;;;;;;;7.80;99.90;;;;;;7336708;19;110681;-80
2021/12/04 11:55:45;;;;;;;;;;;7.80;99.90;;;;;;7333045;19;110548;-79
2021/12/04 11:58:31;;;;;;;;;;;7.80;99.90;;;;;;7342641;19;109910;-79
2021/12/04 12:01:04;;;;;;;;;;;7.80;99.90;;;;;;7329591;19;111763;-79
2021/12/04 12:03:32;;;;;;;;;;;7.80;99.90;;;;;;7336205;19;110385;-80
2021/12/04 12:06:01;;;;;;;;;;;7.80;99.90;;;;;;7331565;19;110697;-79
2021/12/04 12:08:33;;;;;;;;;;;7.80;99.90;;;;;;7333012;19;111799;-80
2021/12/04 12:11:05;;;;;;;;;;;7.80;99.90;;;;;;7334793;19;109675;-80
2021/12/04 12:13:40;;;;;;;;;;;7.80;99.90;;;;;;7337496;19;112328;-79
2021/12/04 12:16:08;;;;;;;;;;;7.70;99.90;;;;;;7338266;19;111473;-78
2021/12/04 12:18:55;;;;;;;;;;;7.70;99.90;;;;;;7331528;19;109891;-79
2021/12/04 12:21:41;;;;;;;;;;;7.70;99.90;;;;;;7341360;19;111037;-79
2021/12/04 12:33:05;;;;;;;;;;;7.70;99.90;;;;;;7333176;19;111091;-78
2021/12/04 12:36:03;;;;;;;;;;;7.70;99.90;;;;;;7333661;19;111270;-78
2021/12/04 12:38:33;;;;;;;;;;;7.80;99.90;;;;;;7334908;19;112149;-79
2021/12/04 12:41:07;;;;;;;;;;;7.80;99.90;;;;;;7339277;19;111316;-79
2021/12/04 12:43:40;;;;;;;;;;;7.80;99.90;;;;;;7341976;19;111184;-79
2021/12/04 12:46:07;;;;;;;;;;;7.80;99.90;;;;;;7343915;19;112408;-78
2021/12/04 12:48:41;;;;;;;;;;;7.80;99.90;;;;;;7343672;19;111068;-79
2021/12/04 12:51:08;;;;;;;;;;;7.90;99.90;;;;;;7340807;19;111882;-79
2021/12/04 12:53:42;;;;;;;;;;;7.80;99.90;;;;;;7340365;19;110524;-78
2021/12/04 12:56:10;;;;;;;;;;;7.80;99.90;;;;;;7340597;19;111492;-78
2021/12/04 12:58:43;;;;;;;;;;;7.80;99.90;;;;;;7343211;19;115701;-79
2021/12/04 13:12:56;;;;;;;;;;;7.90;99.90;;;;;;7341581;19;111935;-79
2021/12/04 13:15:49;;;;;;;;;;;7.90;99.90;;;;;;7343549;19;109836;-78
2021/12/04 13:18:21;;;;;;;;;;;7.90;99.90;;;;;;7334907;19;111445;-78
2021/12/04 13:20:50;;;;;;;;;;;7.90;99.90;;;;;;7343415;19;112128;-78
2021/12/04 13:23:19;;;;;;;;;;;7.90;99.90;;;;;;7341350;19;109451;-78
2021/12/04 13:25:48;;;;;;;;;;;7.90;99.90;;;;;;7344246;19;111695;-79
2021/12/04 13:28:19;;;;;;;;;;;7.90;99.90;;;;;;7339929;19;112325;-78
2021/12/04 13:30:46;;;;;;;;;;;7.90;99.90;;;;;;7341071;19;109638;-78
2021/12/04 13:33:14;;;;;;;;;;;7.90;99.90;;;;;;7344831;19;110971;-78
2021/12/04 13:35:45;;;;;;;;;;;7.90;99.90;;;;;;7340831;19;109602;-79
2021/12/04 13:38:15;;;;;;;;;;;7.90;99.90;;;;;;7342521;19;110922;-78
2021/12/04 13:40:44;;;;;;;;;;;7.90;99.90;;;;;;7337467;19;112849;-79
2021/12/04 13:43:11;;;;;;;;;;;7.90;99.90;;;;;;7339515;19;109652;-79
2021/12/04 13:45:39;;;;;;;;;;;8.00;99.90;;;;;;7339933;19;111002;-79
2021/12/04 13:48:06;;;;;;;;;;;7.90;99.90;;;;;;7342362;19;111779;-79
2021/12/04 13:53:04;;;;;;;;;;;8.00;99.90;;;;;;7347430;19;111092;-79
2021/12/04 13:55:34;;;;;;;;;;;8.00;99.90;;;;;;7339799;19;109980;-78
2021/12/04 13:58:04;;;;;;;;;;;8.00;99.90;;;;;;7348152;19;111126;-79
2021/12/04 14:00:31;;;;;;;;;;;7.90;99.90;;;;;;7347330;19;112290;-79
2021/12/04 14:02:58;;;;;;;;;;;8.00;99.90;;;;;;7347046;19;112193;-79
2021/12/04 14:05:26;;;;;;;;;;;8.00;99.90;;;;;;7350301;19;111146;-79
2021/12/04 14:07:54;;;;;;;;;;;8.00;99.90;;;;;;7346745;19;115043;-79
2021/12/04 14:10:22;;;;;;;;;;;8.00;99.90;;;;;;7348546;19;110190;-78
2021/12/04 14:12:50;;;;;;;;;;;7.90;99.90;;;;;;7342337;19;111092;-79
2021/12/04 14:15:19;;;;;;;;;;;7.90;99.90;;;;;;7353887;19;112204;-79
2021/12/04 14:17:47;;;;;;;;;;;7.90;99.90;;;;;;7343394;19;112015;-79
2021/12/04 14:20:19;;;;;;;;;;;8.00;99.90;;;;;;7347019;19;113357;-78
2021/12/04 14:22:48;;;;;;;;;;;8.00;99.90;;;;;;7346639;19;109464;-79
2021/12/04 14:25:16;;;;;;;;;;;8.00;99.90;;;;;;7348218;19;111033;-79
2021/12/04 14:27:44;;;;;;;;;;;8.00;99.90;;;;;;7347979;19;112026;-79
2021/12/04 14:30:13;;;;;;;;;;;8.00;99.90;;;;;;7342239;19;109910;-80
2021/12/04 14:32:42;;;;;;;;;;;8.00;99.90;;;;;;7346399;19;110933;-79
2021/12/04 14:35:14;;;;;;;;;;;8.10;99.90;;;;;;7342459;19;114246;-78
2021/12/04 14:37:42;;;;;;;;;;;8.00;99.90;;;;;;7355009;19;111306;-78
2021/12/04 14:40:11;;;;;;;;;;;8.00;99.90;;;;;;7343759;19;112178;-79
2021/12/04 14:42:39;;;;;;;;;;;8.00;99.90;;;;;;7347686;19;109910;-79
2021/12/04 14:45:10;;;;;;;;;;;8.10;99.90;;;;;;7348310;19;110822;-79
2021/12/04 14:47:48;;;;;;;;;;;8.00;99.90;;;;;;7346532;19;112621;-79
2021/12/04 14:50:16;;;;;;;;;;;8.10;99.90;;;;;;7345345;19;109932;-79
2021/12/04 14:52:47;;;;;;;;;;;8.10;99.90;;;;;;7343665;19;110828;-78
2021/12/04 14:55:19;;;;;;;;;;;8.10;99.90;;;;;;7340119;19;113226;-79
2021/12/04 14:57:46;;;;;;;;;;;8.10;99.90;;;;;;7332450;19;111773;-79
2021/12/04 15:00:13;;;;;;;;;;;8.10;99.90;;;;;;7341167;19;111414;-79
2021/12/04 15:02:40;;;;;;;;;;;8.10;99.90;;;;;;7331378;19;110885;-80
2021/12/04 15:05:08;;;;;;;;;;;8.10;99.90;;;;;;7338948;19;110779;-79
2021/12/04 15:07:36;;;;;;;;;;;8.10;99.90;;;;;;7332028;19;112046;-79
2021/12/04 15:10:17;;;;;;;;;;;8.10;99.90;;;;;;7337257;19;111310;-80
2021/12/04 15:12:44;;;;;;;;;;;8.10;99.90;;;;;;7337018;19;111043;-79
2021/12/04 15:15:13;;;;;;;;;;;8.10;99.90;;;;;;7334767;19;111813;-79
2021/12/04 15:17:42;;;;;;;;;;;8.10;99.90;;;;;;7335284;19;109667;-79
2021/12/04 15:20:16;;;;;;;;;;;8.00;99.90;;;;;;7335381;19;110989;-80
2021/12/04 15:22:46;;;;;;;;;;;8.00;99.90;;;;;;7343139;19;111852;-79
2021/12/04 15:25:19;;;;;;;;;;;8.00;99.90;;;;;;7333493;19;111506;-80
2021/12/04 15:27:46;;;;;;;;;;;8.00;99.90;;;;;;7337177;19;112169;-79
2021/12/04 15:30:15;;;;;;;;;;;8.10;99.90;;;;;;7336511;19;110229;-79
2021/12/04 15:32:42;;;;;;;;;;;8.00;99.90;;;;;;7334739;19;110724;-80
2021/12/04 15:35:23;;;;;;;;;;;8.00;99.90;;;;;;7337942;19;111860;-79
2021/12/04 15:38:33;;;;;;;;;;;7.90;99.90;;;;;;7336011;19;109793;-79
2021/12/04 15:54:46;;;;;;;;;;;7.60;99.90;;;;;;7335957;19;110663;-79
2021/12/04 15:57:24;;;;;;;;;;;7.60;99.90;;;;;;7331126;19;111873;-80
2021/12/04 15:59:52;;;;;;;;;;;7.60;99.90;;;;;;7336802;19;109988;-80
2021/12/04 16:02:29;;;;;;;;;;;7.50;99.90;;;;;;7336557;19;112544;-80
2021/12/04 16:05:03;;;;;;;;;;;7.50;99.90;;;;;;7332961;19;112081;-80
2021/12/04 16:07:32;;;;;;;;;;;7.50;99.90;;;;;;7344330;19;109994;-81
2021/12/04 16:10:06;;;;;;;;;;;7.40;99.90;;;;;;7338191;19;112224;-81
2021/12/04 16:12:36;;;;;;;;;;;7.30;99.90;;;;;;7337560;19;109997;-82
2021/12/04 16:15:03;;;;;;;;;;;7.20;99.90;;;;;;7333757;19;112773;-82
2021/12/04 16:17:30;;;;;;;;;;;7.20;99.90;;;;;;7335894;19;111646;-82
2021/12/04 16:20:07;;;;;;;;;;;7.20;99.90;;;;;;7334963;19;109530;-80
2021/12/04 16:22:36;;;;;;;;;;;7.10;99.90;;;;;;7337348;19;111182;-80
2021/12/04 16:25:05;;;;;;;;;;;7.10;99.90;;;;;;7334112;19;111745;-83
2021/12/04 16:27:37;;;;;;;;;;;7.00;99.90;;;;;;7336489;19;110032;-83
2021/12/04 16:32:59;;;;;;;;;;;7.00;99.90;;;;;;7334954;19;110348;-81
2021/12/04 16:38:01;;;;;;;;;;;6.90;99.90;;;;;;7330773;19;116918;-81
2021/12/04 16:40:32;;;;;;;;;;;6.90;99.90;;;;;;7343535;19;109425;-81
2021/12/04 16:43:02;;;;;;;;;;;6.90;99.90;;;;;;7343254;19;110763;-81
2021/12/04 16:45:30;;;;;;;;;;;6.80;99.90;;;;;;7338669;19;111953;-83
2021/12/04 16:48:02;;;;;;;;;;;6.80;99.90;;;;;;7341478;19;110696;-82
2021/12/04 16:50:42;;;;;;;;;;;6.80;99.90;;;;;;7341335;19;110762;-84
2021/12/04 16:58:25;;;;;;;;;;;6.70;99.90;;;;;;7345061;19;112078;-81
2021/12/04 17:00:52;;;;;;;;;;;6.70;99.90;;;;;;7342005;19;110807;-83
2021/12/04 17:03:20;;;;;;;;;;;6.70;99.90;;;;;;7341903;19;111219;-81
2021/12/04 17:05:47;;;;;;;;;;;6.70;99.90;;;;;;7345417;19;110963;-84
2021/12/04 17:08:14;;;;;;;;;;;6.70;99.90;;;;;;7342209;19;109949;-81
2021/12/04 17:10:41;;;;;;;;;;;6.60;99.90;;;;;;7345688;19;113363;-80
2021/12/04 17:13:08;;;;;;;;;;;6.60;99.90;;;;;;7338965;19;112627;-81
2021/12/04 17:15:35;;;;;;;;;;;6.60;99.90;;;;;;7349619;19;109446;-81
2021/12/04 17:18:05;;;;;;;;;;;6.60;99.90;;;;;;7339958;19;112119;-80
2021/12/04 17:20:33;;;;;;;;;;;6.50;99.90;;;;;;7342914;19;109460;-81
2021/12/04 17:23:00;;;;;;;;;;;6.50;99.90;;;;;;7340770;19;111419;-80
2021/12/04 17:25:27;;;;;;;;;;;6.60;99.90;;;;;;7339601;19;112302;-81
2021/12/04 17:27:56;;;;;;;;;;;6.60;99.90;;;;;;7345105;19;110840;-82
2021/12/04 17:30:23;;;;;;;;;;;6.60;99.90;;;;;;7341061;19;111189;-82
2021/12/04 17:32:50;;;;;;;;;;;6.60;99.90;;;;;;7348310;19;110236;-80
2021/12/04 17:35:18;;;;;;;;;;;6.60;99.90;;;;;;7345290;19;109956;-81
2021/12/04 17:37:46;;;;;;;;;;;6.60;99.90;;;;;;7355406;19;111116;-81
2021/12/04 17:40:13;;;;;;;;;;;6.60;99.90;;;;;;7345933;19;109775;-80
2021/12/04 17:42:40;;;;;;;;;;;6.70;99.90;;;;;;7349660;19;111610;-82
2021/12/04 17:45:08;;;;;;;;;;;6.70;99.90;;;;;;7344808;19;112142;-80
2021/12/04 17:47:41;;;;;;;;;;;6.70;99.90;;;;;;7347572;19;109337;-81
2021/12/04 17:50:10;;;;;;;;;;;6.70;99.90;;;;;;7351564;19;110757;-81
2021/12/04 17:52:38;;;;;;;;;;;6.80;99.90;;;;;;7348775;19;114509;-80
2021/12/04 17:55:05;;;;;;;;;;;6.80;99.90;;;;;;7350341;19;109394;-80
2021/12/04 17:57:34;;;;;;;;;;;6.80;99.90;;;;;;7346358;19;110518;-80
2021/12/04 18:00:12;;;;;;;;;;;6.80;99.90;;;;;;7354693;19;112221;-81
2021/12/04 18:02:39;;;;;;;;;;;6.90;99.90;;;;;;7346421;19;111230;-80
2021/12/04 18:05:09;;;;;;;;;;;6.90;99.90;;;;;;7351097;19;112529;-81
2021/12/04 18:07:36;;;;;;;;;;;6.90;99.90;;;;;;7347941;19;109410;-80
2021/12/04 18:10:05;;;;;;;;;;;6.90;99.90;;;;;;7349912;19;110858;-83
2021/12/04 18:12:37;;;;;;;;;;;6.80;99.90;;;;;;7347927;19;111985;-82